Châteaudun, France

22:08 CET le 27 février 2015 (GMT +0100)
Bricy Air Base | Change Station
CLOSE
Current Station
Aéroport
Location: Orleans,
Altitude: 410 ft
Stations météo à proximité

Alt. 410 ft 47.98 °N, 1.78 °E | Updated 8 minutes ago

Clear
Ciel dégagé
34 ° F
Paraît 31 ° F
N
4
Vent Variable Vent de OSO

Aujourd'hui
Haut(e) -- | Bas -- ° F
--% Risque de précip.
Hier
Haut(e) -- | Bas -- ° F
Precip. -- pouce
7:40 AM 6:35 PM
Lune gibbeuse croissante, 71% visible
Pression 30.24 pouce
Visibilité 6.2 Miles terrestres
Nuages
Refroidissement éolien 31 ° F
Point de rosée 30 ° F
Humidité 87%
Précipitations 0.00 pouce
Profondeur de la couche neigeuse Non disponible.
UV Non disponible.
Pollen Non disponible.
Qualité de l'air Non disponible.
Flu Activity Non disponible.
METAR LFOJ 272100Z AUTO 24003KT 9999 NSC 01/M01 Q1024

More Conditions Fewer Conditions

Pression 30.24 pouce
Visibilité 6.2 Miles terrestres
Nuages
Refroidissement éolien 31 ° F
Point de rosée 30 ° F
Humidité 87%
Précipitations 0.00 pouce
Profondeur de la couche neigeuse Non disponible.
UV Non disponible.
Pollen Non disponible.
Qualité de l'air Non disponible.
Flu Activity Non disponible.
METAR LFOJ 272100Z AUTO 24003KT 9999 NSC 01/M01 Q1024

More Conditions Fewer Conditions

10-Day Weather Forecast

Almanac

Astronomie

Feb. 27, 2015 Lever Coucher
Temps réel
Crépuscule civil
Crépuscule nautique
Crépuscule astronomique
Lune
Durée de lumière visible
Longueur du jour
Tomorrow will be .
, % of the Moon is Illuminated

Extrêmes aujourd'hui

Country Highs Country Lows

Community

WunderPhotos

Upload Photos

1,800,828 Photos téléchargées !

WunderBlogs® & News

Nearby

Qualité de l'air

  Qualité de l'air Indice de la qualité de l'air Polluant
Not available.

Épaisseur de neige

Station Depth Altitude

Activité sismique

Ville Distance Mag. Time & Date
Minimum magnitude displayed is 2.5.

Températures des eaux côtières

Lieu Température

Stations météo à proximité